Terminal Aerodrome Forecast
Issued by NWS Sterling, VA

Current Version | Previous Version | Text Only | Print | Product List | Glossary Off
Versions: 1 2 3 4 5 6 7 8 9 10 11 12 13 14 15 16 17 18 19 20 21 22 23 24 25 26 27 28 29 30 31 32

000
FTUS41 KLWX 282336
TAFIAD
TAF
KIAD 282336Z 2900/3006 16004KT P6SM VCTS BKN050CB
      TEMPO 2900/2901 VRB25KT 3SM TSRA
     FM290200 VRB03KT P6SM FEW050
     FM290600 VRB03KT 3SM BR SCT050
     FM291200 VRB03KT P6SM SCT050
     FM291400 18005KT P6SM BKN050=

USA.gov is the U.S. government's official web portal to all federal, state and local government web resources and services.